createdAt,value
2022-09-18T00:00:39.328Z,99320.66
2022-09-18T00:02:41.288Z,99320.66
2022-09-18T00:04:43.287Z,99311.44
2022-09-18T00:06:46.244Z,99309.16
2022-09-18T00:08:52.341Z,99323.56
2022-09-18T00:10:54.239Z,99317.81
2022-09-18T00:12:56.398Z,99315.13
2022-09-18T00:14:58.230Z,99318.25
2022-09-18T00:17:08.337Z,99321.50
2022-09-18T00:19:12.206Z,99317.44
2022-09-18T00:21:17.393Z,99311.25
2022-09-18T00:23:19.313Z,99320.94
2022-09-18T00:25:21.275Z,99322.78
2022-09-18T00:27:24.117Z,99329.34
2022-09-18T00:29:25.953Z,99321.91
2022-09-18T00:31:32.887Z,99323.19
2022-09-18T00:33:36.042Z,99325.00
2022-09-18T00:35:43.506Z,99321.75
2022-09-18T00:37:45.439Z,99323.19
2022-09-18T00:39:47.322Z,99327.06
2022-09-18T00:41:49.169Z,99327.06
2022-09-18T00:43:54.109Z,99332.22
2022-09-18T00:46:05.135Z,99326.88
2022-09-18T00:48:09.616Z,99331.59
2022-09-18T00:50:26.080Z,99327.50
2022-09-18T00:52:35.543Z,99329.97
2022-09-18T00:54:40.747Z,99332.03
2022-09-18T00:56:43.222Z,99324.84
2022-09-18T00:58:46.297Z,99329.78
2022-09-18T01:00:48.232Z,99336.03
2022-09-18T01:02:50.735Z,99328.66
2022-09-18T01:04:52.985Z,99337.69
2022-09-18T01:07:03.572Z,99334.63
2022-09-18T01:09:28.028Z,99332.56
2022-09-18T01:12:01.151Z,99323.97
2022-09-18T01:14:27.634Z,99328.72
2022-09-18T01:16:46.094Z,99327.28
2022-09-18T01:19:11.575Z,99321.53
2022-09-18T01:21:20.283Z,99327.09
2022-09-18T01:23:40.820Z,99323.38
2022-09-18T01:26:13.067Z,99320.09
2022-09-18T01:28:38.673Z,99316.75
2022-09-18T01:30:43.665Z,99327.47
2022-09-18T01:32:58.595Z,99326.03
2022-09-18T01:35:39.955Z,99323.72
2022-09-18T01:37:55.724Z,99321.88
2022-09-18T01:40:09.762Z,99322.50
2022-09-18T01:42:14.463Z,99315.69
2022-09-18T01:44:21.024Z,99321.06
2022-09-18T01:46:25.655Z,99317.09
2022-09-18T01:48:42.831Z,99310.34
2022-09-18T01:50:52.418Z,99300.59
2022-09-18T01:53:03.256Z,99303.91
2022-09-18T01:55:11.966Z,99309.44
2022-09-18T01:57:22.624Z,99306.75
2022-09-18T01:59:39.394Z,99301.81
2022-09-18T02:01:44.598Z,99298.13
2022-09-18T02:03:57.252Z,99295.22
2022-09-18T02:06:26.704Z,99296.91
2022-09-18T02:08:38.795Z,99299.38
2022-09-18T02:10:48.149Z,99298.28
2022-09-18T02:12:52.015Z,99301.88
2022-09-18T02:15:02.002Z,99301.03
2022-09-18T02:17:10.282Z,99296.25
2022-09-18T02:19:28.754Z,99298.94
2022-09-18T02:21:38.077Z,99307.81
2022-09-18T02:23:42.565Z,99305.56
2022-09-18T02:25:54.057Z,99300.38
2022-09-18T02:27:57.899Z,99296.50
2022-09-18T02:30:03.652Z,99296.69
2022-09-18T02:32:05.719Z,99294.66
2022-09-18T02:34:09.622Z,99301.88
2022-09-18T02:36:14.923Z,99298.34
2022-09-18T02:38:35.648Z,99294.44
2022-09-18T02:41:16.347Z,99288.53
2022-09-18T02:43:58.518Z,99292.84
2022-09-18T02:46:34.040Z,99289.13
2022-09-18T02:48:53.813Z,99288.31
2022-09-18T02:51:08.165Z,99285.84
2022-09-18T02:53:18.125Z,99286.66
2022-09-18T02:55:36.921Z,99275.13
2022-09-18T02:58:06.409Z,99280.94
2022-09-18T03:00:12.715Z,99284.00
2022-09-18T03:02:14.817Z,99283.78
2022-09-18T03:04:22.339Z,99281.94
2022-09-18T03:06:24.196Z,99279.91
2022-09-18T03:08:26.076Z,99274.94
2022-09-18T03:10:27.933Z,99274.09
2022-09-18T03:12:29.820Z,99273.66
2022-09-18T03:14:32.822Z,99271.22
2022-09-18T03:16:35.159Z,99263.97
2022-09-18T03:18:37.973Z,99266.47
2022-09-18T03:20:41.893Z,99264.59
2022-09-18T03:22:43.675Z,99258.81
2022-09-18T03:24:45.547Z,99265.25
2022-09-18T03:26:47.887Z,99258.88
2022-09-18T03:28:49.882Z,99256.19
2022-09-18T03:30:52.179Z,99259.06
2022-09-18T03:32:54.027Z,99260.31
2022-09-18T03:34:56.314Z,99259.28
2022-09-18T03:37:01.289Z,99267.59
2022-09-18T03:39:03.949Z,99270.66
2022-09-18T03:41:07.252Z,99277.66
2022-09-18T03:43:09.286Z,99278.09
2022-09-18T03:45:12.495Z,99275.47
2022-09-18T03:47:14.346Z,99284.09
2022-09-18T03:49:16.210Z,99283.06
2022-09-18T03:51:19.573Z,99286.56
2022-09-18T03:53:21.455Z,99286.81
2022-09-18T03:55:23.840Z,99291.31
2022-09-18T03:57:26.686Z,99298.97
2022-09-18T03:59:29.505Z,99299.63
2022-09-18T04:01:31.453Z,99298.38
2022-09-18T04:03:34.526Z,99302.72
2022-09-18T04:05:36.595Z,99300.03
2022-09-18T04:07:38.922Z,99294.31
2022-09-18T04:09:40.883Z,99289.13
2022-09-18T04:11:43.268Z,99296.97
2022-09-18T04:13:45.110Z,99305.44
2022-09-18T04:15:50.480Z,99302.56
2022-09-18T04:17:52.438Z,99295.97
2022-09-18T04:19:55.508Z,99306.50
2022-09-18T04:21:57.404Z,99294.78
2022-09-18T04:23:59.575Z,99297.63
2022-09-18T04:26:08.981Z,99289.19
2022-09-18T04:28:11.546Z,99292.72
2022-09-18T04:30:14.562Z,99295.41
2022-09-18T04:32:16.589Z,99294.34
2022-09-18T04:34:18.434Z,99301.56
2022-09-18T04:36:20.403Z,99306.13
2022-09-18T04:38:27.613Z,99301.00
2022-09-18T04:40:29.589Z,99300.16
2022-09-18T04:42:32.590Z,99303.66
2022-09-18T04:44:34.569Z,99310.25
2022-09-18T04:46:36.519Z,99303.88
2022-09-18T04:48:39.360Z,99303.66
2022-09-18T04:50:42.551Z,99304.50
2022-09-18T04:52:44.615Z,99298.09
2022-09-18T04:54:46.472Z,99301.63
2022-09-18T04:56:48.365Z,99297.50
2022-09-18T04:58:51.190Z,99294.81
2022-09-18T05:00:54.053Z,99291.91
2022-09-18T05:02:56.011Z,99295.03
2022-09-18T05:04:57.859Z,99300.78
2022-09-18T05:07:01.886Z,99295.41
2022-09-18T05:09:03.948Z,99296.69
2022-09-18T05:11:05.877Z,99300.78
2022-09-18T05:13:09.893Z,99303.63
2022-09-18T05:15:12.184Z,99299.50
2022-09-18T05:17:14.167Z,99301.75
2022-09-18T05:19:16.007Z,99303.41
2022-09-18T05:21:18.372Z,99304.44
2022-09-18T05:23:20.189Z,99305.63
2022-09-18T05:25:25.098Z,99307.09
2022-09-18T05:27:27.180Z,99306.09
2022-09-18T05:29:29.074Z,99312.84
2022-09-18T05:31:30.909Z,99310.75
2022-09-18T05:33:33.029Z,99312.59
2022-09-18T05:35:37.606Z,99312.16
2022-09-18T05:37:39.490Z,99310.34
2022-09-18T05:39:42.424Z,99311.53
2022-09-18T05:41:50.309Z,99311.53
2022-09-18T05:43:53.383Z,99305.16
2022-09-18T05:45:55.557Z,99311.75
2022-09-18T05:48:05.777Z,99310.44
2022-09-18T05:50:10.194Z,99309.97
2022-09-18T05:52:12.035Z,99315.59
2022-09-18T05:54:15.175Z,99317.41
2022-09-18T05:56:17.420Z,99315.31
2022-09-18T05:58:21.777Z,99313.44
2022-09-18T06:00:25.723Z,99319.59
2022-09-18T06:02:27.523Z,99316.66
2022-09-18T06:04:29.398Z,99319.53
2022-09-18T06:06:31.791Z,99320.16
2022-09-18T06:08:36.320Z,99320.34
2022-09-18T06:10:40.213Z,99324.91
2022-09-18T06:12:42.027Z,99321.56
2022-09-18T06:14:43.924Z,99324.84
2022-09-18T06:16:45.898Z,99321.94
2022-09-18T06:18:47.947Z,99329.16
2022-09-18T06:20:58.116Z,99332.28
2022-09-18T06:23:01.268Z,99322.38
2022-09-18T06:25:04.359Z,99328.19
2022-09-18T06:27:06.295Z,99327.94
2022-09-18T06:29:08.144Z,99325.72
2022-09-18T06:31:11.141Z,99330.41
2022-09-18T06:33:13.060Z,99331.44
2022-09-18T06:35:14.975Z,99326.94
2022-09-18T06:37:19.099Z,99334.97
2022-09-18T06:39:21.954Z,99334.13
2022-09-18T06:41:25.211Z,99331.44
2022-09-18T06:43:27.030Z,99332.88
2022-09-18T06:45:31.270Z,99326.50
2022-09-18T06:47:33.152Z,99332.03
2022-09-18T06:49:35.116Z,99332.09
2022-09-18T06:51:36.972Z,99335.72
2022-09-18T06:53:38.881Z,99332.44
2022-09-18T06:55:40.742Z,99335.03
2022-09-18T06:57:42.863Z,99341.78
2022-09-18T06:59:44.969Z,99332.75
2022-09-18T07:01:48.512Z,99335.22
2022-09-18T07:03:51.289Z,99338.47
2022-09-18T07:05:53.244Z,99345.53
2022-09-18T07:07:55.208Z,99342.72
2022-09-18T07:09:57.086Z,99347.13
2022-09-18T07:12:00.061Z,99351.53
2022-09-18T07:14:02.219Z,99344.50
2022-09-18T07:16:05.349Z,99349.06
2022-09-18T07:18:09.371Z,99343.22
2022-09-18T07:20:13.152Z,99338.28
2022-09-18T07:22:15.154Z,99345.84
2022-09-18T07:24:17.056Z,99349.31
2022-09-18T07:26:19.377Z,99346.19
2022-09-18T07:28:21.381Z,99351.03
2022-09-18T07:30:23.247Z,99346.69
2022-09-18T07:32:27.778Z,99349.56
2022-09-18T07:34:30.255Z,99358.63
2022-09-18T07:36:32.751Z,99366.00
2022-09-18T07:38:35.592Z,99354.88
2022-09-18T07:40:37.981Z,99356.25
2022-09-18T07:42:40.845Z,99354.03
2022-09-18T07:44:43.102Z,99353.00
2022-09-18T07:46:45.954Z,99356.50
2022-09-18T07:48:48.051Z,99361.84
2022-09-18T07:50:50.967Z,99357.84
2022-09-18T07:52:55.880Z,99352.81
2022-09-18T07:54:57.804Z,99362.31
2022-09-18T07:57:00.654Z,99362.31
2022-09-18T07:59:02.534Z,99360.09
2022-09-18T08:01:07.237Z,99362.38
2022-09-18T08:03:12.223Z,99361.97
2022-09-18T08:05:15.320Z,99365.94
2022-09-18T08:07:17.282Z,99365.16
2022-09-18T08:09:19.784Z,99361.75
2022-09-18T08:11:21.990Z,99365.50
2022-09-18T08:13:24.998Z,99361.22
2022-09-18T08:15:26.954Z,99362.47
2022-09-18T08:17:28.963Z,99356.59
2022-09-18T08:19:31.187Z,99344.25
2022-09-18T08:21:33.083Z,99353.09
2022-09-18T08:23:37.003Z,99349.78
2022-09-18T08:25:39.416Z,99357.44
2022-09-18T08:27:42.283Z,99351.69
2022-09-18T08:29:44.210Z,99351.69
2022-09-18T08:31:47.281Z,99355.88
2022-09-18T08:33:49.339Z,99355.69
2022-09-18T08:35:51.331Z,99352.13
2022-09-18T08:37:56.834Z,99345.81
2022-09-18T08:40:00.592Z,99346.41
2022-09-18T08:42:16.844Z,99338.00
2022-09-18T08:44:24.554Z,99347.09
2022-09-18T08:46:38.490Z,99339.09
2022-09-18T08:49:19.272Z,99340.16
2022-09-18T08:51:31.175Z,99337.31
2022-09-18T08:53:43.310Z,99334.88
2022-09-18T08:55:48.547Z,99338.47
2022-09-18T08:57:56.694Z,99328.56
2022-09-18T09:00:09.383Z,99326.16
2022-09-18T09:02:25.009Z,99340.75
2022-09-18T09:04:30.352Z,99333.13
2022-09-18T09:06:35.204Z,99330.25
2022-09-18T09:08:52.011Z,99327.81
2022-09-18T09:11:09.309Z,99323.91
2022-09-18T09:13:42.478Z,99320.59
2022-09-18T09:16:07.355Z,99319.38
2022-09-18T09:18:22.275Z,99317.91
2022-09-18T09:20:33.911Z,99312.13
2022-09-18T09:22:50.395Z,99306.31
2022-09-18T09:25:16.654Z,99307.16
2022-09-18T09:27:30.056Z,99312.91
2022-09-18T09:29:39.665Z,99313.31
2022-09-18T09:31:49.212Z,99308.31
2022-09-18T09:34:17.050Z,99305.22
2022-09-18T09:36:27.330Z,99302.06
2022-09-18T09:38:56.192Z,99303.75
2022-09-18T09:41:02.020Z,99303.41
2022-09-18T09:43:19.651Z,99301.50
2022-09-18T09:45:51.206Z,99305.28
2022-09-18T09:48:16.649Z,99303.13
2022-09-18T09:50:48.196Z,99305.47
2022-09-18T09:52:55.512Z,99310.69
2022-09-18T09:55:02.367Z,99312.31
2022-09-18T09:57:26.010Z,99308.13
2022-09-18T09:59:54.625Z,99314.13
2022-09-18T10:02:11.764Z,99312.00
2022-09-18T10:04:33.575Z,99319.22
2022-09-18T10:06:59.185Z,99317.22
2022-09-18T10:09:17.391Z,99319.19
2022-09-18T10:11:21.441Z,99327.69
2022-09-18T10:13:29.470Z,99326.25
2022-09-18T10:16:00.341Z,99330.81
2022-09-18T10:18:08.115Z,99330.97
2022-09-18T10:20:18.171Z,99334.06
2022-09-18T10:22:23.400Z,99334.06
2022-09-18T10:24:50.446Z,99345.09
2022-09-18T10:26:58.750Z,99344.47
2022-09-18T10:29:00.690Z,99349.84
2022-09-18T10:31:06.882Z,99349.44
2022-09-18T10:33:31.400Z,99354.59
2022-09-18T10:35:44.035Z,99351.28
2022-09-18T10:37:45.935Z,99343.59
2022-09-18T10:39:53.216Z,99348.53
2022-09-18T10:42:06.328Z,99350.00
2022-09-18T10:44:22.851Z,99348.53
2022-09-18T10:46:39.876Z,99351.88
2022-09-18T10:48:44.733Z,99354.16
2022-09-18T10:50:59.160Z,99354.19
2022-09-18T10:53:27.631Z,99368.03
2022-09-18T10:55:31.176Z,99353.13
2022-09-18T10:58:02.115Z,99361.22
2022-09-18T11:00:21.509Z,99349.97
2022-09-18T11:02:27.311Z,99351.41
2022-09-18T11:04:32.537Z,99355.72
2022-09-18T11:06:36.089Z,99355.25
2022-09-18T11:08:44.151Z,99347.63
2022-09-18T11:10:58.333Z,99354.78
2022-09-18T11:13:02.726Z,99356.75
2022-09-18T11:15:17.146Z,99348.38
2022-09-18T11:17:29.674Z,99349.69
2022-09-18T11:19:40.033Z,99350.53
2022-09-18T11:21:45.764Z,99350.88
2022-09-18T11:24:05.752Z,99358.56
2022-09-18T11:26:19.578Z,99356.22
2022-09-18T11:28:28.958Z,99354.38
2022-09-18T11:30:34.525Z,99351.06
2022-09-18T11:32:38.303Z,99356.97
2022-09-18T11:34:48.003Z,99355.09
2022-09-18T11:36:53.561Z,99355.03
2022-09-18T11:38:59.592Z,99347.41
2022-09-18T11:41:04.527Z,99342.38
2022-09-18T11:43:22.743Z,99351.13
2022-09-18T11:45:52.230Z,99348.22
2022-09-18T11:48:19.585Z,99345.47
2022-09-18T11:50:26.350Z,99347.03
2022-09-18T11:52:31.004Z,99342.25
2022-09-18T11:54:57.911Z,99351.72
2022-09-18T11:57:16.984Z,99348.16
2022-09-18T11:59:42.827Z,99350.25
2022-09-18T12:02:02.631Z,99353.56
2022-09-18T12:04:27.658Z,99349.66
2022-09-18T12:06:41.966Z,99354.44
2022-09-18T12:09:05.968Z,99354.41
2022-09-18T12:11:23.062Z,99357.75
2022-09-18T12:13:55.850Z,99359.22
2022-09-18T12:16:08.421Z,99348.84
2022-09-18T12:18:25.777Z,99353.56
2022-09-18T12:20:37.047Z,99355.34
2022-09-18T12:22:52.425Z,99354.72
2022-09-18T12:24:55.169Z,99358.53
2022-09-18T12:27:20.803Z,99358.81
2022-09-18T12:29:39.972Z,99360.03
2022-09-18T12:31:56.012Z,99353.81
2022-09-18T12:34:17.120Z,99349.09
2022-09-18T12:36:40.997Z,99365.91
2022-09-18T12:39:26.604Z,99352.69
2022-09-18T12:42:45.631Z,99362.63
2022-09-18T12:45:32.903Z,99355.38
2022-09-18T12:47:48.045Z,99357.00
2022-09-18T12:50:01.666Z,99362.59
2022-09-18T12:52:16.036Z,99357.00
2022-09-18T12:54:25.007Z,99359.03
2022-09-18T12:56:48.454Z,99361.53
2022-09-18T12:59:08.306Z,99364.88
2022-09-18T13:01:22.499Z,99357.47
2022-09-18T13:03:34.547Z,99361.22
2022-09-18T13:05:54.657Z,99363.91
2022-09-18T13:08:42.933Z,99370.78
2022-09-18T13:10:47.407Z,99372.84
2022-09-18T13:13:14.166Z,99378.25
2022-09-18T13:15:30.593Z,99372.47
2022-09-18T13:17:39.780Z,99383.63
2022-09-18T13:19:53.956Z,99380.53
2022-09-18T13:21:58.393Z,99384.66
2022-09-18T13:24:02.803Z,99382.59
2022-09-18T13:26:10.999Z,99385.47
2022-09-18T13:28:15.502Z,99382.78
2022-09-18T13:30:27.022Z,99384.84
2022-09-18T13:32:36.626Z,99379.44
2022-09-18T13:34:53.406Z,99379.06
2022-09-18T13:37:07.786Z,99388.78
2022-09-18T13:39:29.053Z,99400.56
2022-09-18T13:41:46.333Z,99399.97
2022-09-18T13:44:00.794Z,99400.59
2022-09-18T13:46:07.027Z,99407.41
2022-09-18T13:48:30.033Z,99402.66
2022-09-18T13:50:36.713Z,99409.91
2022-09-18T13:52:42.695Z,99403.69
2022-09-18T13:55:25.473Z,99410.94
2022-09-18T13:57:31.940Z,99405.53
2022-09-18T14:00:08.689Z,99407.41
2022-09-18T14:02:33.174Z,99408.03
2022-09-18T14:04:44.503Z,99404.31
2022-09-18T14:06:46.515Z,99405.75
2022-09-18T14:08:49.493Z,99406.78
2022-09-18T14:11:15.663Z,99409.91
2022-09-18T14:13:40.285Z,99409.69
2022-09-18T14:16:03.170Z,99408.03
2022-09-18T14:18:14.427Z,99408.63
2022-09-18T14:20:22.094Z,99414.22
2022-09-18T14:22:28.521Z,99409.25
2022-09-18T14:24:56.020Z,99409.25
2022-09-18T14:27:02.036Z,99412.16
2022-09-18T14:29:10.386Z,99407.19
2022-09-18T14:31:26.270Z,99409.25
2022-09-18T14:33:31.982Z,99410.09
2022-09-18T14:35:57.650Z,99411.13
2022-09-18T14:37:59.612Z,99401.81
2022-09-18T14:40:01.757Z,99408.84
2022-09-18T14:42:16.594Z,99406.75
2022-09-18T14:44:19.830Z,99408.63
2022-09-18T14:46:24.326Z,99408.81
2022-09-18T14:48:31.260Z,99409.03
2022-09-18T14:50:37.952Z,99407.16
2022-09-18T14:52:43.744Z,99414.41
2022-09-18T14:54:48.078Z,99412.94
2022-09-18T14:56:52.282Z,99412.13
2022-09-18T14:58:58.994Z,99416.69
2022-09-18T15:01:04.243Z,99407.00
2022-09-18T15:03:19.386Z,99409.25
2022-09-18T15:05:22.606Z,99412.38
2022-09-18T15:07:24.838Z,99414.84
2022-09-18T15:09:32.975Z,99410.09
2022-09-18T15:11:52.475Z,99411.31
2022-09-18T15:13:57.898Z,99411.13
2022-09-18T15:16:02.246Z,99405.53
2022-09-18T15:18:18.436Z,99400.38
2022-09-18T15:20:27.624Z,99403.47
2022-09-18T15:22:30.375Z,99403.09
2022-09-18T15:24:32.287Z,99406.38
2022-09-18T15:26:41.332Z,99400.19
2022-09-18T15:28:46.815Z,99400.81
2022-09-18T15:30:57.520Z,99396.25
2022-09-18T15:33:05.366Z,99402.47
2022-09-18T15:35:14.975Z,99397.91
2022-09-18T15:37:23.752Z,99399.16
2022-09-18T15:39:35.571Z,99391.50
2022-09-18T15:41:43.956Z,99398.75
2022-09-18T15:43:46.673Z,99395.63
2022-09-18T15:46:03.235Z,99396.88
2022-09-18T15:48:36.350Z,99397.91
2022-09-18T15:50:40.434Z,99395.00
2022-09-18T15:52:43.714Z,99391.50
2022-09-18T15:55:06.840Z,99392.13
2022-09-18T15:57:14.615Z,99396.06
2022-09-18T15:59:22.182Z,99393.97
2022-09-18T16:01:36.803Z,99394.59
2022-09-18T16:03:39.240Z,99393.38
2022-09-18T16:05:53.090Z,99395.84
2022-09-18T16:08:02.363Z,99395.22
2022-09-18T16:10:24.887Z,99388.41
2022-09-18T16:12:29.720Z,99399.97
2022-09-18T16:15:11.603Z,99391.31
2022-09-18T16:17:37.691Z,99396.66
2022-09-18T16:19:43.990Z,99394.41
2022-09-18T16:21:47.876Z,99388.19
2022-09-18T16:23:55.107Z,99398.72
2022-09-18T16:26:13.218Z,99392.09
2022-09-18T16:28:25.470Z,99397.47
2022-09-18T16:30:28.550Z,99398.50
2022-09-18T16:32:30.434Z,99396.03
2022-09-18T16:34:33.420Z,99401.00
2022-09-18T16:36:41.355Z,99399.53
2022-09-18T16:38:43.214Z,99398.72
2022-09-18T16:40:50.938Z,99407.19
2022-09-18T16:42:56.909Z,99402.84
2022-09-18T16:45:00.549Z,99402.03
2022-09-18T16:47:07.949Z,99405.75
2022-09-18T16:49:15.354Z,99405.94
2022-09-18T16:51:19.303Z,99398.72
2022-09-18T16:53:22.171Z,99400.97
2022-09-18T16:55:24.197Z,99405.72
2022-09-18T16:57:27.862Z,99410.28
2022-09-18T16:59:31.228Z,99410.47
2022-09-18T17:01:48.542Z,99412.53
2022-09-18T17:03:59.432Z,99410.69
2022-09-18T17:06:02.554Z,99416.06
2022-09-18T17:08:05.976Z,99414.41
2022-09-18T17:10:09.250Z,99413.16
2022-09-18T17:12:11.151Z,99411.91
2022-09-18T17:14:13.430Z,99410.28
2022-09-18T17:16:30.560Z,99407.38
2022-09-18T17:18:40.734Z,99413.16
2022-09-18T17:20:42.992Z,99416.22
2022-09-18T17:22:46.471Z,99415.63
2022-09-18T17:24:49.265Z,99420.78
2022-09-18T17:26:53.294Z,99421.81
2022-09-18T17:28:57.947Z,99423.66
2022-09-18T17:31:00.154Z,99427.97
2022-09-18T17:33:03.156Z,99425.69
2022-09-18T17:35:05.728Z,99430.03
2022-09-18T17:37:07.756Z,99427.72
2022-09-18T17:39:09.915Z,99434.94
2022-09-18T17:41:14.956Z,99430.00
2022-09-18T17:43:17.902Z,99435.72
2022-09-18T17:45:21.048Z,99432.88
2022-09-18T17:47:24.210Z,99438.00
2022-09-18T17:49:26.711Z,99442.94
2022-09-18T17:51:32.117Z,99434.50
2022-09-18T17:53:34.579Z,99445.59
2022-09-18T17:55:38.203Z,99437.31
2022-09-18T17:57:40.427Z,99447.16
2022-09-18T17:59:44.908Z,99444.44
2022-09-18T18:01:49.206Z,99444.19
2022-09-18T18:03:51.628Z,99458.84
2022-09-18T18:05:58.900Z,99452.41
2022-09-18T18:08:00.924Z,99457.56
2022-09-18T18:10:03.946Z,99465.81
2022-09-18T18:12:07.077Z,99466.19
2022-09-18T18:14:08.994Z,99465.94
2022-09-18T18:16:21.636Z,99466.97
2022-09-18T18:18:23.694Z,99470.53
2022-09-18T18:20:25.657Z,99475.28
2022-09-18T18:22:27.634Z,99475.53
2022-09-18T18:24:31.201Z,99480.44
2022-09-18T18:26:33.238Z,99480.19
2022-09-18T18:28:37.882Z,99481.59
2022-09-18T18:30:40.552Z,99492.72
2022-09-18T18:32:43.365Z,99496.81
2022-09-18T18:34:45.425Z,99497.66
2022-09-18T18:36:49.834Z,99501.34
2022-09-18T18:38:54.206Z,99498.44
2022-09-18T18:41:04.094Z,99495.16
2022-09-18T18:43:07.234Z,99503.41
2022-09-18T18:45:10.839Z,99492.06
2022-09-18T18:47:13.169Z,99495.94
2022-09-18T18:49:17.578Z,99503.78
2022-09-18T18:51:19.891Z,99504.81
2022-09-18T18:53:22.104Z,99500.09
2022-09-18T18:55:27.163Z,99498.59
2022-09-18T18:57:29.342Z,99498.22
2022-09-18T18:59:32.496Z,99499.25
2022-09-18T19:01:35.921Z,99496.41
2022-09-18T19:03:44.599Z,99503.22
2022-09-18T19:05:48.372Z,99500.31
2022-09-18T19:07:52.301Z,99500.31
2022-09-18T19:09:55.360Z,99496.81
2022-09-18T19:11:58.037Z,99493.56
2022-09-18T19:14:00.793Z,99498.91
2022-09-18T19:16:09.871Z,99502.38
2022-09-18T19:18:11.897Z,99511.91
2022-09-18T19:20:14.032Z,99512.53
2022-09-18T19:22:17.698Z,99519.50
2022-09-18T19:24:20.820Z,99517.06
2022-09-18T19:26:24.908Z,99520.91
2022-09-18T19:28:28.437Z,99510.31
2022-09-18T19:30:30.679Z,99509.69
2022-09-18T19:32:32.795Z,99511.72
2022-09-18T19:34:34.973Z,99509.34
2022-09-18T19:36:36.965Z,99519.19
2022-09-18T19:38:39.900Z,99514.84
2022-09-18T19:40:43.099Z,99511.34
2022-09-18T19:42:57.501Z,99515.88
2022-09-18T19:45:03.983Z,99516.72
2022-09-18T19:47:26.753Z,99505.16
2022-09-18T19:49:38.883Z,99512.44
2022-09-18T19:51:40.949Z,99514.47
2022-09-18T19:53:42.791Z,99514.09
2022-09-18T19:55:47.521Z,99513.06
2022-09-18T19:57:56.709Z,99512.50
2022-09-18T19:59:59.803Z,99513.25
2022-09-18T20:02:02.788Z,99509.34
2022-09-18T20:04:05.736Z,99508.91
2022-09-18T20:06:08.978Z,99513.44
2022-09-18T20:08:11.564Z,99506.22
2022-09-18T20:10:14.979Z,99511.78
2022-09-18T20:12:17.341Z,99508.09
2022-09-18T20:14:22.137Z,99510.84
2022-09-18T20:16:24.190Z,99498.56
2022-09-18T20:18:26.351Z,99506.59
2022-09-18T20:20:28.602Z,99512.53
2022-09-18T20:22:30.420Z,99511.09
2022-09-18T20:24:32.861Z,99512.75
2022-09-18T20:26:36.854Z,99509.25
2022-09-18T20:28:39.100Z,99512.94
2022-09-18T20:30:40.979Z,99506.94
2022-09-18T20:32:42.778Z,99495.22
2022-09-18T20:34:47.784Z,99501.16
2022-09-18T20:36:52.411Z,99500.56
2022-09-18T20:38:58.208Z,99497.69
2022-09-18T20:41:06.527Z,99494.38
2022-09-18T20:43:09.816Z,99498.25
2022-09-18T20:45:11.677Z,99498.31
2022-09-18T20:47:13.654Z,99505.16
2022-09-18T20:49:17.619Z,99503.69
2022-09-18T20:51:19.972Z,99494.56
2022-09-18T20:53:24.154Z,99497.88
2022-09-18T20:55:27.483Z,99492.97
2022-09-18T20:57:29.300Z,99508.19
2022-09-18T20:59:31.501Z,99500.00
2022-09-18T21:01:43.425Z,99500.81
2022-09-18T21:03:48.295Z,99502.47
2022-09-18T21:06:07.445Z,99499.78
2022-09-18T21:08:14.322Z,99494.63
2022-09-18T21:10:16.321Z,99495.72
2022-09-18T21:12:19.061Z,99489.50
2022-09-18T21:14:21.220Z,99494.88
2022-09-18T21:16:26.399Z,99489.91
2022-09-18T21:18:29.549Z,99491.50
2022-09-18T21:20:31.589Z,99492.31
2022-09-18T21:22:33.583Z,99495.00
2022-09-18T21:24:36.676Z,99486.16
2022-09-18T21:26:44.325Z,99497.69
2022-09-18T21:28:58.035Z,99494.19
2022-09-18T21:31:11.647Z,99487.53
2022-09-18T21:33:15.622Z,99484.50
2022-09-18T21:35:19.032Z,99483.84
2022-09-18T21:37:20.887Z,99482.75
2022-09-18T21:39:24.705Z,99491.81
2022-09-18T21:41:26.730Z,99489.50
2022-09-18T21:43:31.223Z,99479.06
2022-09-18T21:45:36.772Z,99485.66
2022-09-18T21:47:39.338Z,99481.03
2022-09-18T21:49:41.265Z,99476.75
2022-09-18T21:51:43.900Z,99480.47
2022-09-18T21:53:45.965Z,99472.41
2022-09-18T21:55:47.860Z,99472.63
2022-09-18T21:57:49.618Z,99473.06
2022-09-18T21:59:52.435Z,99474.28
2022-09-18T22:05:12.261Z,99477.72
2022-09-18T22:07:15.192Z,99481.25
2022-09-18T22:09:23.307Z,99481.81
2022-09-18T22:11:30.213Z,99486.38
2022-09-18T22:13:32.863Z,99482.25
2022-09-18T22:15:34.737Z,99483.06
2022-09-18T22:17:36.533Z,99486.31
2022-09-18T22:19:41.437Z,99476.81
2022-09-18T22:21:46.626Z,99476.97
2022-09-18T22:24:06.476Z,99480.44
2022-09-18T22:26:08.519Z,99473.63
2022-09-18T22:28:12.311Z,99476.69
2022-09-18T22:30:14.183Z,99472.91
2022-09-18T22:32:16.034Z,99479.34
2022-09-18T22:34:23.298Z,99479.69
2022-09-18T22:36:25.872Z,99475.59
2022-09-18T22:38:27.707Z,99483.53
2022-09-18T22:40:29.652Z,99489.47
2022-09-18T22:42:31.698Z,99483.53
2022-09-18T22:44:35.820Z,99486.63
2022-09-18T22:46:39.977Z,99491.41
2022-09-18T22:48:42.265Z,99480.81
2022-09-18T22:50:44.321Z,99490.78
2022-09-18T22:52:46.131Z,99485.03
2022-09-18T22:54:49.144Z,99481.91
2022-09-18T22:56:52.460Z,99490.78
2022-09-18T22:58:56.203Z,99490.78
2022-09-18T23:01:06.761Z,99492.00
2022-09-18T23:03:08.608Z,99498.28
2022-09-18T23:05:10.903Z,99505.84
2022-09-18T23:07:13.431Z,99498.28
2022-09-18T23:09:17.156Z,99496.56
2022-09-18T23:11:23.335Z,99491.66
2022-09-18T23:13:26.220Z,99494.41
2022-09-18T23:15:29.110Z,99492.28
2022-09-18T23:17:31.009Z,99487.31
2022-09-18T23:19:35.066Z,99499.69
2022-09-18T23:21:39.371Z,99492.84
2022-09-18T23:23:44.305Z,99483.53
2022-09-18T23:25:46.213Z,99489.00
2022-09-18T23:27:49.516Z,99486.03
2022-09-18T23:29:53.404Z,99485.66
2022-09-18T23:31:59.337Z,99486.25
2022-09-18T23:34:03.847Z,99489.78
2022-09-18T23:36:11.328Z,99485.72
2022-09-18T23:38:13.297Z,99480.09
2022-09-18T23:40:15.378Z,99478.72
2022-09-18T23:42:17.309Z,99476.59
2022-09-18T23:44:21.903Z,99474.09
2022-09-18T23:46:24.575Z,99470.59
2022-09-18T23:48:28.407Z,99479.72
2022-09-18T23:50:31.171Z,99472.53
2022-09-18T23:52:34.068Z,99475.38
2022-09-18T23:54:36.986Z,99476.19
2022-09-18T23:56:38.889Z,99478.97
2022-09-18T23:58:42.155Z,99472.31
